Time;durP1;ratioP1;P1;durP2;ratioP2;P2;SDS_P1;SDS_P2;PMS_P1;PMS_P2;Temp;Humidity;BMP_temperature;BMP_pressure;BME280_temperature;BME280_humidity;BME280_pressure;Samples;Min_cycle;Max_cycle;Signal;HPM_P1;HPM_P2
2021/07/04 00:00:46;;;;;;;0.20;0.20;;;23.40;75.00;;;;;;4208384;28;20051;-47
2021/07/04 00:03:08;;;;;;;0.00;0.00;;;23.40;75.00;;;;;;4208358;28;20048;-47
2021/07/04 00:05:34;;;;;;;0.00;0.00;;;23.40;75.10;;;;;;4200140;28;20037;-49
2021/07/04 00:07:57;;;;;;;0.15;0.15;;;23.40;75.20;;;;;;4208491;28;20067;-50
2021/07/04 00:10:25;;;;;;;0.00;0.00;;;23.40;75.30;;;;;;4208110;28;20781;-49
2021/07/04 00:12:50;;;;;;;;;;;23.30;75.30;;;;;;4208380;28;20051;-47
2021/07/04 00:15:15;;;;;;;0.00;0.00;;;23.30;75.40;;;;;;4207719;28;19931;-49
2021/07/04 00:17:37;;;;;;;0.00;0.00;;;23.30;75.40;;;;;;4208306;28;20044;-47
2021/07/04 00:20:00;;;;;;;0.08;0.08;;;23.30;75.50;;;;;;4201625;28;20058;-46
2021/07/04 00:22:22;;;;;;;0.10;0.10;;;23.30;75.60;;;;;;4208096;28;20070;-51
2021/07/04 00:24:44;;;;;;;0.08;0.08;;;23.30;75.60;;;;;;4207948;28;20059;-49
2021/07/04 00:27:06;;;;;;;0.10;0.10;;;23.30;75.60;;;;;;4191437;28;20406;-51
2021/07/04 00:29:30;;;;;;;0.05;0.05;;;23.30;75.70;;;;;;4191240;28;20535;-51
2021/07/04 00:31:52;;;;;;;0.00;0.00;;;23.30;75.80;;;;;;4191461;28;20056;-49
2021/07/04 00:34:14;;;;;;;0.00;0.00;;;23.30;75.80;;;;;;4192053;28;20169;-48
2021/07/04 00:36:36;;;;;;;0.00;0.00;;;23.30;75.80;;;;;;4207841;28;20086;-47
2021/07/04 00:38:58;;;;;;;0.20;0.20;;;23.30;75.80;;;;;;4207771;28;20048;-47
2021/07/04 00:41:21;;;;;;;0.00;0.00;;;23.30;75.90;;;;;;4199091;28;20047;-47
2021/07/04 00:43:43;;;;;;;0.10;0.10;;;23.30;76.00;;;;;;4191065;28;20154;-45
2021/07/04 00:46:07;;;;;;;0.30;0.30;;;23.20;76.00;;;;;;4191308;28;20135;-52
2021/07/04 00:48:31;;;;;;;0.45;0.25;;;23.20;76.00;;;;;;4189702;28;20475;-46
2021/07/04 00:50:54;;;;;;;0.00;0.00;;;23.30;76.10;;;;;;4207679;28;20119;-45
2021/07/04 00:53:18;;;;;;;0.00;0.00;;;23.20;76.10;;;;;;4203226;28;20048;-45
2021/07/04 00:55:40;;;;;;;0.15;0.15;;;23.20;76.10;;;;;;4191019;28;20084;-45
2021/07/04 00:58:08;;;;;;;0.00;0.00;;;23.20;76.20;;;;;;4189194;28;20053;-45
2021/07/04 01:00:32;;;;;;;0.00;0.00;;;23.20;76.20;;;;;;4191145;28;20045;-47
2021/07/04 01:02:57;;;;;;;0.08;0.08;;;23.20;76.20;;;;;;4191238;28;20051;-48
2021/07/04 01:05:20;;;;;;;0.05;0.05;;;23.20;76.30;;;;;;4196785;28;20044;-46
2021/07/04 01:07:43;;;;;;;0.00;0.00;;;23.20;76.30;;;;;;4192885;28;20145;-47
2021/07/04 01:10:11;;;;;;;0.57;0.57;;;23.20;76.40;;;;;;4192577;28;20049;-46
2021/07/04 01:12:34;;;;;;;0.10;0.10;;;23.20;76.40;;;;;;4193746;28;20143;-46
2021/07/04 01:14:59;;;;;;;0.00;0.00;;;23.20;76.40;;;;;;4193456;28;20048;-46
2021/07/04 01:17:21;;;;;;;0.47;0.47;;;23.20;76.50;;;;;;4194154;28;20774;-46
2021/07/04 01:19:45;;;;;;;0.60;0.60;;;23.20;76.50;;;;;;4191653;28;20549;-46
2021/07/04 01:22:10;;;;;;;0.00;0.00;;;23.20;76.60;;;;;;4192661;28;20211;-46
2021/07/04 01:24:36;;;;;;;0.00;0.00;;;23.20;76.60;;;;;;4195236;28;20049;-50
2021/07/04 01:26:58;;;;;;;0.00;0.00;;;23.20;76.60;;;;;;4192617;28;20051;-47
2021/07/04 01:29:20;;;;;;;0.00;0.00;;;23.20;76.70;;;;;;4193858;28;20132;-45
2021/07/04 01:31:44;;;;;;;0.20;0.20;;;23.20;76.80;;;;;;4192266;28;20048;-46
2021/07/04 01:34:10;;;;;;;0.00;0.00;;;23.20;76.80;;;;;;4200092;28;20055;-44
2021/07/04 01:36:37;;;;;;;2.38;1.50;;;23.20;76.90;;;;;;4208976;28;20094;-46
2021/07/04 01:39:01;;;;;;;0.45;0.45;;;23.20;76.90;;;;;;4209825;28;20052;-46
2021/07/04 01:41:26;;;;;;;0.00;0.00;;;23.20;76.90;;;;;;4209286;28;20105;-46
2021/07/04 01:43:49;;;;;;;0.32;0.32;;;23.20;77.00;;;;;;4203121;28;20052;-45
2021/07/04 01:46:13;;;;;;;0.35;0.35;;;23.20;77.10;;;;;;4193495;28;20411;-46
2021/07/04 01:48:37;;;;;;;0.15;0.15;;;23.20;77.10;;;;;;4197441;28;20517;-49
2021/07/04 01:51:03;;;;;;;0.10;0.10;;;23.20;77.10;;;;;;4208930;28;20056;-50
2021/07/04 01:53:30;;;;;;;0.10;0.10;;;23.20;77.20;;;;;;4210388;28;20066;-52
2021/07/04 01:56:04;;;;;;;1.25;1.20;;;23.20;77.20;;;;;;4208458;28;20494;-49
2021/07/04 01:58:30;;;;;;;0.10;0.10;;;23.20;77.30;;;;;;4208301;28;20047;-45
2021/07/04 02:00:57;;;;;;;0.00;0.00;;;23.20;77.40;;;;;;4209962;28;20059;-49
2021/07/04 02:03:19;;;;;;;0.00;0.00;;;23.10;77.40;;;;;;4205033;28;20105;-49
2021/07/04 02:05:50;;;;;;;1.38;0.65;;;23.20;77.50;;;;;;4191478;28;20060;-45
2021/07/04 02:08:18;;;;;;;0.00;0.00;;;23.20;77.50;;;;;;4193497;28;20430;-47
2021/07/04 02:10:44;;;;;;;0.10;0.10;;;23.10;77.50;;;;;;4191685;28;20037;-45
2021/07/04 02:13:09;;;;;;;0.10;0.10;;;23.10;77.60;;;;;;4193348;28;20560;-44
2021/07/04 02:15:38;;;;;;;0.88;0.77;;;23.10;77.70;;;;;;4191428;28;20123;-46
2021/07/04 02:18:10;;;;;;;0.00;0.00;;;23.10;78.60;;;;;;4191754;28;20054;-46
2021/07/04 02:20:56;;;;;;;0.00;0.00;;;23.10;77.80;;;;;;4193094;28;20443;-50
2021/07/04 02:23:37;;;;;;;0.00;0.00;;;23.10;77.90;;;;;;4203456;28;20107;-51
2021/07/04 02:26:18;;;;;;;0.20;0.20;;;23.10;77.90;;;;;;4208323;28;20494;-44
2021/07/04 02:28:44;;;;;;;0.00;0.00;;;23.10;77.90;;;;;;4208453;28;20137;-46
2021/07/04 02:31:39;;;;;;;0.00;0.00;;;23.10;78.00;;;;;;4206596;28;20494;-49
2021/07/04 02:34:06;;;;;;;0.35;0.35;;;23.10;78.10;;;;;;4197923;28;20060;-46
2021/07/04 02:36:36;;;;;;;0.00;0.00;;;23.10;78.10;;;;;;4207039;28;20101;-48
2021/07/04 02:39:09;;;;;;;0.10;0.10;;;23.10;78.20;;;;;;4207719;28;20129;-46
2021/07/04 02:41:32;;;;;;;3.92;1.20;;;23.10;78.30;;;;;;4207472;28;20044;-48
2021/07/04 02:43:54;;;;;;;0.98;0.28;;;23.10;78.30;;;;;;4209727;28;20409;-47
2021/07/04 02:46:17;;;;;;;0.40;0.40;;;23.10;79.20;;;;;;4208119;28;20152;-46
2021/07/04 02:48:41;;;;;;;0.10;0.10;;;23.10;78.40;;;;;;4199023;28;20045;-46
2021/07/04 02:51:02;;;;;;;0.13;0.13;;;23.10;78.40;;;;;;4191369;28;20120;-47
2021/07/04 02:53:27;;;;;;;0.10;0.10;;;23.10;78.50;;;;;;4191251;28;20059;-44
2021/07/04 02:55:53;;;;;;;0.10;0.10;;;23.10;78.50;;;;;;4190901;28;20049;-48
2021/07/04 02:58:20;;;;;;;0.00;0.00;;;23.00;78.50;;;;;;4191361;28;20558;-46
2021/07/04 03:00:45;;;;;;;0.60;0.60;;;23.00;78.60;;;;;;4199845;28;20123;-48
2021/07/04 03:03:09;;;;;;;0.00;0.00;;;23.10;78.70;;;;;;4208609;28;20052;-48
2021/07/04 03:05:33;;;;;;;0.55;0.55;;;23.00;78.70;;;;;;4193012;28;20052;-45
2021/07/04 03:07:56;;;;;;;0.10;0.10;;;23.10;78.70;;;;;;4190984;28;20044;-47
2021/07/04 03:10:24;;;;;;;0.00;0.00;;;23.00;78.70;;;;;;4191985;28;20183;-45
2021/07/04 03:12:49;;;;;;;0.10;0.10;;;23.00;78.80;;;;;;4190940;28;20538;-45
2021/07/04 03:15:13;;;;;;;0.65;0.65;;;23.00;78.80;;;;;;4193309;28;20790;-45
2021/07/04 03:17:39;;;;;;;0.20;0.20;;;23.00;78.90;;;;;;4191655;28;20040;-46
2021/07/04 03:20:01;;;;;;;0.22;0.22;;;23.00;79.00;;;;;;4207086;28;20152;-49
2021/07/04 03:22:26;;;;;;;0.60;0.60;;;23.00;79.00;;;;;;4208703;28;20498;-46
2021/07/04 03:24:49;;;;;;;1.88;0.75;;;23.00;79.10;;;;;;4206628;28;20078;-47
2021/07/04 03:27:12;;;;;;;0.13;0.13;;;23.00;79.20;;;;;;4207258;28;20040;-44
2021/07/04 03:29:38;;;;;;;0.10;0.10;;;23.00;79.20;;;;;;4208786;28;20138;-48
2021/07/04 03:32:01;;;;;;;1.88;1.55;;;23.00;79.30;;;;;;4208530;28;20051;-48
2021/07/04 03:34:23;;;;;;;0.17;0.17;;;23.00;79.30;;;;;;4204874;28;20475;-49
2021/07/04 03:36:48;;;;;;;0.00;0.00;;;23.00;79.30;;;;;;4208450;28;20406;-46
2021/07/04 03:39:11;;;;;;;0.20;0.20;;;23.00;79.30;;;;;;4208697;28;20113;-46
2021/07/04 03:41:35;;;;;;;0.17;0.17;;;23.00;79.30;;;;;;4207436;28;20071;-47
2021/07/04 03:43:59;;;;;;;1.20;0.43;;;23.00;79.40;;;;;;4201497;28;20048;-50
2021/07/04 03:46:22;;;;;;;0.30;0.30;;;23.00;80.30;;;;;;4190476;28;20052;-49
2021/07/04 03:48:44;;;;;;;0.00;0.00;;;23.00;80.30;;;;;;4205041;28;20044;-48
2021/07/04 03:51:13;;;;;;;0.10;0.10;;;22.90;79.40;;;;;;4206707;28;20131;-45
2021/07/04 03:53:36;;;;;;;0.00;0.00;;;23.00;79.50;;;;;;4206597;28;20509;-45
2021/07/04 03:55:59;;;;;;;3.50;0.60;;;23.00;79.50;;;;;;4208407;28;20055;-46
2021/07/04 03:58:24;;;;;;;0.13;0.13;;;23.00;79.60;;;;;;4207115;28;20449;-45
2021/07/04 04:00:46;;;;;;;0.17;0.17;;;23.00;79.60;;;;;;4207046;28;20048;-48
2021/07/04 04:03:18;;;;;;;0.00;0.00;;;23.00;79.60;;;;;;4197224;28;20125;-47
2021/07/04 04:05:49;;;;;;;1.40;1.38;;;23.00;79.60;;;;;;4189574;28;20143;-48
2021/07/04 04:08:13;;;;;;;0.20;0.20;;;23.00;80.50;;;;;;4191544;28;20053;-48
2021/07/04 04:10:38;;;;;;;0.43;0.43;;;23.00;79.70;;;;;;4191371;28;20044;-47
2021/07/04 04:13:08;;;;;;;0.95;0.90;;;23.00;79.70;;;;;;4189588;28;20048;-45
2021/07/04 04:15:33;;;;;;;0.10;0.10;;;23.00;79.80;;;;;;4191284;28;20462;-49
2021/07/04 04:17:57;;;;;;;0.35;0.35;;;22.90;79.80;;;;;;4190720;28;20047;-45
2021/07/04 04:20:21;;;;;;;0.25;0.25;;;22.90;79.80;;;;;;4189537;28;20052;-46
2021/07/04 04:22:43;;;;;;;2.47;1.10;;;22.90;79.80;;;;;;4190081;28;20067;-52
2021/07/04 04:25:11;;;;;;;0.20;0.20;;;22.90;79.90;;;;;;4205500;28;21187;-52
2021/07/04 04:27:35;;;;;;;0.08;0.08;;;22.90;79.90;;;;;;4206836;28;20040;-46
2021/07/04 04:29:59;;;;;;;0.10;0.10;;;22.90;80.00;;;;;;4206499;28;20048;-47
2021/07/04 04:32:23;;;;;;;0.00;0.00;;;22.90;80.00;;;;;;4205150;28;20147;-49
2021/07/04 04:34:47;;;;;;;0.20;0.20;;;22.90;80.00;;;;;;4191294;28;20508;-46
2021/07/04 04:37:09;;;;;;;0.00;0.00;;;22.90;80.00;;;;;;4191279;28;20079;-46
2021/07/04 04:39:32;;;;;;;0.17;0.17;;;22.90;80.10;;;;;;4191046;28;20059;-45
2021/07/04 04:41:54;;;;;;;0.55;0.30;;;22.90;80.10;;;;;;4190318;28;20063;-45
2021/07/04 04:44:27;;;;;;;0.20;0.20;;;22.90;80.10;;;;;;4179309;28;20049;-47
2021/07/04 04:46:50;;;;;;;0.00;0.00;;;22.90;80.20;;;;;;4175601;28;20053;-46
2021/07/04 04:49:13;;;;;;;0.10;0.10;;;22.90;80.20;;;;;;4191033;28;20048;-45
2021/07/04 04:51:35;;;;;;;0.32;0.32;;;22.90;80.20;;;;;;4191042;28;20499;-46
2021/07/04 04:53:56;;;;;;;0.13;0.13;;;22.90;80.30;;;;;;4190976;28;20072;-46
2021/07/04 04:56:18;;;;;;;2.17;0.47;;;22.90;80.30;;;;;;4190982;28;20052;-46
2021/07/04 04:58:41;;;;;;;0.10;0.10;;;22.90;80.30;;;;;;4190884;28;20055;-46
2021/07/04 05:01:03;;;;;;;0.00;0.00;;;22.90;80.40;;;;;;4191106;28;20075;-48
2021/07/04 05:03:27;;;;;;;0.08;0.08;;;22.90;80.40;;;;;;4174895;28;20069;-49
2021/07/04 05:05:49;;;;;;;0.30;0.30;;;22.90;80.40;;;;;;4174447;28;20419;-45
2021/07/04 05:08:11;;;;;;;0.00;0.00;;;22.90;81.30;;;;;;4191044;28;20043;-44
2021/07/04 05:10:33;;;;;;;0.75;0.75;;;22.90;80.50;;;;;;4191052;28;20102;-45
2021/07/04 05:12:55;;;;;;;0.00;0.00;;;22.90;80.60;;;;;;4190889;28;20051;-45
2021/07/04 05:15:17;;;;;;;0.17;0.17;;;22.90;80.60;;;;;;4189977;28;20064;-45
2021/07/04 05:17:42;;;;;;;0.00;0.00;;;22.90;81.50;;;;;;4192128;28;20084;-45
2021/07/04 05:20:07;;;;;;;0.45;0.35;;;22.90;80.60;;;;;;4190601;28;20486;-49
2021/07/04 05:22:29;;;;;;;1.08;0.57;;;22.90;80.70;;;;;;4202302;28;20479;-51
2021/07/04 05:24:51;;;;;;;0.45;0.45;;;22.90;80.80;;;;;;4207296;28;20751;-45
2021/07/04 05:27:14;;;;;;;0.00;0.00;;;22.90;81.80;;;;;;4207475;28;20052;-47
2021/07/04 05:29:35;;;;;;;0.00;0.00;;;22.90;81.50;;;;;;4207305;28;20048;-45
2021/07/04 05:31:57;;;;;;;0.13;0.13;;;23.00;81.20;;;;;;4199058;28;20119;-45
2021/07/04 05:34:20;;;;;;;0.10;0.10;;;23.00;81.10;;;;;;4198712;28;20127;-45
2021/07/04 05:36:46;;;;;;;0.00;0.00;;;23.00;81.10;;;;;;4207321;28;20127;-46
2021/07/04 05:39:08;;;;;;;1.60;0.63;;;23.00;81.10;;;;;;4206783;28;20055;-45
2021/07/04 05:41:30;;;;;;;0.43;0.43;;;23.00;81.30;;;;;;4191018;28;20060;-45
2021/07/04 05:43:52;;;;;;;0.10;0.10;;;23.00;81.40;;;;;;4190416;28;20052;-45
2021/07/04 05:46:14;;;;;;;0.05;0.05;;;23.00;81.40;;;;;;4190500;28;20591;-47
2021/07/04 05:48:40;;;;;;;0.15;0.15;;;23.00;81.40;;;;;;4190427;28;20483;-46
2021/07/04 05:51:02;;;;;;;0.00;0.00;;;23.00;81.70;;;;;;4190714;28;20457;-45
2021/07/04 05:53:26;;;;;;;0.05;0.05;;;23.00;81.80;;;;;;4191705;28;21477;-45
2021/07/04 05:55:48;;;;;;;0.10;0.10;;;23.00;81.80;;;;;;4193604;28;20106;-47
2021/07/04 05:58:11;;;;;;;0.10;0.10;;;23.00;81.70;;;;;;4193560;28;20040;-46
2021/07/04 06:00:33;;;;;;;0.22;0.22;;;23.00;81.60;;;;;;4194291;28;20048;-46
2021/07/04 06:02:55;;;;;;;0.20;0.20;;;23.00;82.20;;;;;;4193469;28;20056;-48
2021/07/04 06:05:18;;;;;;;0.10;0.10;;;23.00;84.80;;;;;;4209178;28;20052;-46
2021/07/04 06:07:40;;;;;;;0.25;0.25;;;23.00;89.90;;;;;;4210023;28;20508;-45
2021/07/04 06:10:05;;;;;;;2.28;0.65;;;23.10;91.30;;;;;;4209954;28;20048;-47
2021/07/04 06:12:27;;;;;;;1.23;1.17;;;23.10;91.20;;;;;;4209919;28;20105;-46
2021/07/04 06:14:49;;;;;;;0.30;0.30;;;23.10;90.80;;;;;;4206630;28;20043;-53
2021/07/04 06:17:11;;;;;;;2.05;1.02;;;23.10;90.50;;;;;;4206144;28;20047;-50
2021/07/04 06:19:33;;;;;;;1.50;1.45;;;23.10;90.00;;;;;;4209382;28;20052;-47
2021/07/04 06:21:56;;;;;;;0.10;0.10;;;23.10;89.30;;;;;;4209797;28;20134;-46
2021/07/04 06:24:19;;;;;;;0.00;0.00;;;23.10;88.70;;;;;;4204750;28;20513;-47
2021/07/04 06:26:42;;;;;;;1.55;1.02;;;23.10;88.20;;;;;;4192782;28;20068;-44
2021/07/04 06:29:04;;;;;;;0.30;0.30;;;23.10;87.50;;;;;;4196778;28;20048;-45
2021/07/04 06:31:28;;;;;;;0.20;0.20;;;23.10;87.00;;;;;;4203658;28;20048;-49
2021/07/04 06:33:53;;;;;;;1.00;0.30;;;23.10;86.60;;;;;;4198450;28;20127;-46
2021/07/04 06:36:14;;;;;;;0.47;0.47;;;23.10;86.50;;;;;;4191495;28;20094;-50
2021/07/04 06:38:37;;;;;;;0.45;0.45;;;23.10;86.20;;;;;;4190123;28;20143;-45
2021/07/04 06:41:01;;;;;;;0.10;0.10;;;23.10;85.80;;;;;;4201157;28;20108;-46
2021/07/04 06:43:24;;;;;;;0.00;0.00;;;23.10;85.70;;;;;;4199793;28;20064;-46
2021/07/04 06:45:48;;;;;;;0.10;0.10;;;23.10;85.50;;;;;;4203676;28;20121;-48
2021/07/04 06:48:10;;;;;;;0.08;0.08;;;23.10;85.30;;;;;;4205924;28;20055;-49
2021/07/04 06:50:32;;;;;;;1.48;1.38;;;23.00;85.10;;;;;;4205504;28;20131;-48
2021/07/04 06:52:54;;;;;;;0.13;0.13;;;23.00;84.90;;;;;;4205420;28;20083;-46
2021/07/04 06:55:17;;;;;;;0.20;0.20;;;23.10;85.00;;;;;;4197285;28;20123;-47
2021/07/04 06:57:39;;;;;;;1.02;0.60;;;23.10;84.80;;;;;;4189095;28;20056;-47
2021/07/04 07:00:06;;;;;;;0.10;0.10;;;23.00;84.70;;;;;;4187945;28;20104;-46
2021/07/04 07:02:28;;;;;;;0.15;0.15;;;23.10;84.60;;;;;;4199659;28;20051;-47
2021/07/04 07:04:50;;;;;;;1.08;1.08;;;23.00;84.60;;;;;;4204657;28;20055;-47
2021/07/04 07:07:13;;;;;;;0.10;0.10;;;23.10;84.50;;;;;;4204921;28;20060;-46
2021/07/04 07:09:35;;;;;;;0.10;0.10;;;23.10;84.40;;;;;;4205467;28;20048;-48
2021/07/04 07:11:57;;;;;;;0.00;0.00;;;23.00;84.30;;;;;;4206617;28;20124;-47
2021/07/04 07:14:21;;;;;;;1.25;1.13;;;23.10;85.20;;;;;;4204539;28;20498;-47
2021/07/04 07:16:44;;;;;;;0.20;0.20;;;23.00;84.20;;;;;;4198234;28;20067;-48
2021/07/04 07:19:07;;;;;;;0.08;0.08;;;23.10;84.20;;;;;;4189492;28;20635;-46
2021/07/04 07:21:29;;;;;;;0.10;0.10;;;23.00;84.10;;;;;;4197930;28;20139;-49
2021/07/04 07:23:51;;;;;;;1.55;0.88;;;23.00;84.10;;;;;;4194698;28;20437;-49
2021/07/04 07:26:17;;;;;;;0.20;0.20;;;23.10;84.10;;;;;;4191704;28;20041;-46
2021/07/04 07:28:40;;;;;;;0.30;0.30;;;23.00;84.00;;;;;;4191223;28;20495;-52
2021/07/04 07:31:06;;;;;;;0.52;0.52;;;23.10;84.00;;;;;;4198147;28;20044;-48
2021/07/04 07:33:29;;;;;;;0.00;0.00;;;23.10;84.00;;;;;;4207314;28;20044;-49
2021/07/04 07:35:52;;;;;;;0.68;0.68;;;23.10;83.90;;;;;;4208178;28;20056;-47
2021/07/04 07:38:14;;;;;;;0.35;0.35;;;23.00;83.80;;;;;;4204162;28;20056;-50
2021/07/04 07:40:37;;;;;;;0.88;0.88;;;23.10;83.80;;;;;;4191468;28;20453;-48
2021/07/04 07:43:00;;;;;;;0.32;0.32;;;23.10;83.80;;;;;;4192719;28;20810;-46
2021/07/04 07:45:22;;;;;;;0.20;0.20;;;23.10;83.70;;;;;;4197770;28;20044;-47
2021/07/04 07:47:49;;;;;;;0.98;0.57;;;23.20;83.80;;;;;;4201961;28;20060;-52
2021/07/04 07:50:14;;;;;;;0.13;0.13;;;23.10;83.70;;;;;;4204869;28;20055;-49
2021/07/04 07:52:36;;;;;;;0.00;0.00;;;23.10;83.70;;;;;;4207890;28;20044;-48
2021/07/04 07:54:58;;;;;;;0.22;0.22;;;23.10;83.60;;;;;;4208174;28;20405;-51
2021/07/04 07:57:20;;;;;;;1.67;1.58;;;23.10;83.60;;;;;;4206175;28;20059;-49
2021/07/04 07:59:43;;;;;;;1.17;1.10;;;23.20;83.70;;;;;;4189583;28;20106;-51
2021/07/04 08:02:06;;;;;;;0.20;0.20;;;23.20;83.70;;;;;;4191020;28;20045;-51
2021/07/04 08:04:28;;;;;;;0.22;0.22;;;23.20;83.60;;;;;;4191403;28;20053;-53
2021/07/04 08:06:52;;;;;;;0.10;0.10;;;23.20;83.70;;;;;;4191564;28;20048;-52
2021/07/04 08:09:14;;;;;;;0.00;0.00;;;23.20;83.70;;;;;;4192418;28;20048;-52
2021/07/04 08:11:39;;;;;;;1.58;1.58;;;23.20;83.70;;;;;;4207636;28;20513;-49
2021/07/04 08:14:02;;;;;;;0.43;0.43;;;23.30;83.70;;;;;;4207502;28;20070;-46
2021/07/04 08:16:25;;;;;;;1.85;1.00;;;23.30;83.50;;;;;;4193337;28;20120;-50
2021/07/04 08:18:47;;;;;;;0.55;0.55;;;23.30;83.30;;;;;;4190837;28;20131;-48
2021/07/04 08:21:09;;;;;;;0.32;0.20;;;23.30;83.20;;;;;;4167139;28;20151;-49
2021/07/04 08:23:33;;;;;;;0.25;0.25;;;23.40;83.20;;;;;;4172475;28;20045;-48
2021/07/04 08:25:55;;;;;;;0.08;0.08;;;23.40;83.20;;;;;;4158601;28;20056;-50
2021/07/04 08:28:18;;;;;;;0.00;0.00;;;23.40;82.90;;;;;;4158960;28;20053;-46
2021/07/04 08:30:40;;;;;;;0.00;0.00;;;23.40;82.80;;;;;;4158011;28;20045;-44
2021/07/04 08:33:02;;;;;;;0.60;0.60;;;23.50;82.70;;;;;;4157721;28;20046;-51
2021/07/04 08:35:24;;;;;;;0.40;0.40;;;23.50;82.70;;;;;;4157717;28;20458;-52
2021/07/04 08:37:46;;;;;;;0.17;0.17;;;23.50;82.60;;;;;;4157703;28;20056;-45
2021/07/04 08:40:11;;;;;;;0.00;0.00;;;23.50;82.50;;;;;;4158104;28;20042;-45
2021/07/04 08:42:34;;;;;;;0.88;0.47;;;23.50;82.60;;;;;;4159200;28;20431;-48
2021/07/04 08:44:57;;;;;;;0.00;0.00;;;23.50;82.60;;;;;;4172533;28;20073;-46
2021/07/04 08:47:20;;;;;;;0.10;0.10;;;23.50;82.70;;;;;;4168691;28;20049;-48
2021/07/04 08:49:42;;;;;;;0.28;0.28;;;23.50;82.70;;;;;;4170416;28;20095;-47
2021/07/04 08:52:05;;;;;;;1.27;0.63;;;23.50;82.50;;;;;;4155977;28;20500;-46
2021/07/04 08:54:27;;;;;;;0.05;0.05;;;23.50;82.50;;;;;;4158513;28;20068;-49
2021/07/04 08:56:50;;;;;;;1.33;0.80;;;23.60;82.40;;;;;;4155947;28;20041;-48
2021/07/04 08:59:12;;;;;;;1.95;0.47;;;23.60;82.10;;;;;;4157370;28;20042;-45
2021/07/04 09:01:35;;;;;;;0.47;0.47;;;23.60;82.00;;;;;;4157928;28;20595;-46
2021/07/04 09:04:11;;;;;;;0.20;0.20;;;23.60;82.00;;;;;;4155604;28;20127;-46
2021/07/04 09:06:39;;;;;;;0.80;0.80;;;23.70;81.90;;;;;;4157771;28;20404;-46
2021/07/04 09:09:21;;;;;;;0.40;0.40;;;23.70;81.90;;;;;;4155474;28;20099;-50
2021/07/04 09:12:03;;;;;;;1.55;1.30;;;23.70;81.80;;;;;;4157509;28;20049;-48
2021/07/04 09:14:37;;;;;;;0.00;0.00;;;23.70;81.60;;;;;;4156434;28;20137;-47
2021/07/04 09:17:19;;;;;;;0.28;0.28;;;23.70;81.50;;;;;;4162847;28;20053;-48
2021/07/04 09:19:55;;;;;;;0.30;0.30;;;23.70;81.30;;;;;;4185571;28;20060;-49
2021/07/04 09:22:17;;;;;;;0.25;0.25;;;23.80;81.40;;;;;;4189980;28;20143;-47
2021/07/04 09:24:42;;;;;;;0.15;0.15;;;23.80;81.40;;;;;;4190293;28;20388;-46
2021/07/04 09:27:06;;;;;;;0.90;0.90;;;23.80;81.30;;;;;;4173700;28;20047;-47
2021/07/04 09:29:47;;;;;;;1.00;0.65;;;23.80;81.30;;;;;;4193269;28;20056;-47
2021/07/04 09:32:18;;;;;;;0.32;0.32;;;23.80;81.20;;;;;;4192600;28;20753;-46
2021/07/04 09:34:41;;;;;;;0.52;0.52;;;23.80;81.20;;;;;;4192890;28;20542;-49
2021/07/04 09:37:03;;;;;;;0.10;0.10;;;23.80;81.10;;;;;;4197028;28;20082;-47
2021/07/04 09:39:25;;;;;;;0.20;0.20;;;23.80;81.10;;;;;;4193151;28;20527;-46
2021/07/04 09:42:07;;;;;;;0.15;0.15;;;23.90;81.10;;;;;;4201621;28;20502;-46
2021/07/04 09:44:31;;;;;;;0.20;0.20;;;23.90;81.00;;;;;;4203514;28;20058;-52
2021/07/04 09:47:11;;;;;;;0.25;0.25;;;23.90;80.80;;;;;;4194211;28;20045;-50
2021/07/04 09:49:33;;;;;;;0.00;0.00;;;23.90;80.80;;;;;;4208648;28;20582;-50
2021/07/04 09:52:18;;;;;;;0.10;0.10;;;23.90;80.60;;;;;;4207639;28;20139;-53
2021/07/04 09:54:54;;;;;;;0.50;0.50;;;24.00;80.80;;;;;;4202783;28;20050;-50
2021/07/04 09:57:20;;;;;;;0.00;0.00;;;24.00;80.50;;;;;;4204549;28;20109;-49
2021/07/04 09:59:43;;;;;;;0.10;0.10;;;24.00;80.30;;;;;;4197155;28;20056;-49
2021/07/04 10:02:14;;;;;;;0.30;0.30;;;24.10;80.20;;;;;;4209845;28;20055;-46
2021/07/04 10:04:38;;;;;;;0.38;0.38;;;24.10;80.20;;;;;;4206099;28;20040;-49
2021/07/04 10:07:00;;;;;;;0.15;0.15;;;24.10;80.00;;;;;;4192564;28;20053;-47
2021/07/04 10:09:25;;;;;;;1.60;0.50;;;24.10;79.80;;;;;;4202111;28;20044;-46
2021/07/04 10:11:49;;;;;;;0.00;0.00;;;24.10;79.70;;;;;;4209963;28;20047;-46
2021/07/04 10:14:13;;;;;;;0.10;0.10;;;24.10;79.70;;;;;;4204111;28;20180;-48
2021/07/04 10:16:35;;;;;;;0.30;0.30;;;24.10;79.50;;;;;;4195249;28;20391;-48
2021/07/04 10:18:59;;;;;;;0.55;0.52;;;24.20;79.50;;;;;;4206120;28;20138;-47
2021/07/04 10:21:22;;;;;;;0.00;0.00;;;24.20;79.40;;;;;;4208530;28;20101;-48
2021/07/04 10:23:48;;;;;;;0.03;0.03;;;24.20;79.40;;;;;;4206628;28;20395;-50
2021/07/04 10:26:11;;;;;;;0.52;0.40;;;24.30;80.20;;;;;;4192843;28;20044;-47
2021/07/04 10:28:40;;;;;;;1.08;0.70;;;24.30;79.20;;;;;;4202293;28;20048;-48
2021/07/04 10:31:08;;;;;;;0.08;0.08;;;24.30;79.10;;;;;;4209118;28;20054;-48
2021/07/04 10:33:34;;;;;;;0.17;0.17;;;24.30;79.00;;;;;;4209185;28;20101;-47
2021/07/04 10:36:06;;;;;;;2.65;2.55;;;24.40;78.80;;;;;;4204943;28;20048;-50
2021/07/04 10:38:43;;;;;;;0.10;0.10;;;24.40;78.80;;;;;;4208581;28;20127;-49
2021/07/04 10:41:08;;;;;;;0.50;0.50;;;24.40;78.70;;;;;;4209043;28;20060;-45
2021/07/04 10:44:06;;;;;;;0.10;0.10;;;24.40;78.70;;;;;;4207118;28;20087;-46
2021/07/04 10:47:20;;;;;;;0.50;0.50;;;24.50;78.40;;;;;;4192218;28;20052;-46
2021/07/04 10:50:10;;;;;;;0.00;0.00;;;24.50;78.20;;;;;;4189460;28;20131;-49
2021/07/04 10:52:41;;;;;;;0.45;0.45;;;24.60;78.10;;;;;;4208807;28;20370;-47
2021/07/04 10:55:09;;;;;;;0.15;0.15;;;24.60;78.00;;;;;;4191996;28;20653;-47
2021/07/04 10:57:33;;;;;;;0.15;0.15;;;24.60;77.90;;;;;;4191734;28;20040;-50
2021/07/04 11:00:21;;;;;;;24.13;1.75;;;24.70;78.70;;;;;;4191482;27;20436;-46
2021/07/04 11:02:45;;;;;;;0.30;0.30;;;24.70;77.70;;;;;;4198890;28;20070;-47
2021/07/04 11:05:10;;;;;;;0.52;0.52;;;24.70;77.60;;;;;;4207890;28;20102;-46
2021/07/04 11:08:08;;;;;;;0.90;0.80;;;24.70;77.50;;;;;;4208529;28;22776;-48
2021/07/04 11:10:32;;;;;;;0.00;0.00;;;24.80;77.40;;;;;;4190352;28;20077;-46
2021/07/04 11:12:57;;;;;;;0.17;0.17;;;24.80;77.30;;;;;;4206831;28;21528;-45
2021/07/04 11:15:30;;;;;;;1.20;1.20;;;24.80;77.20;;;;;;4193936;28;20044;-48
2021/07/04 11:18:08;;;;;;;0.60;0.60;;;24.80;77.10;;;;;;4189683;28;20070;-48
2021/07/04 11:20:33;;;;;;;0.32;0.32;;;24.80;77.10;;;;;;4191126;28;20075;-46
2021/07/04 11:22:56;;;;;;;0.10;0.10;;;24.90;77.00;;;;;;4202823;28;20043;-46
2021/07/04 11:25:19;;;;;;;0.30;0.30;;;24.90;76.90;;;;;;4208637;28;20097;-47
2021/07/04 11:27:41;;;;;;;0.10;0.10;;;24.90;76.80;;;;;;4190456;28;20482;-46
2021/07/04 11:30:30;;;;;;;0.08;0.08;;;24.90;76.80;;;;;;4199394;28;20036;-47
2021/07/04 11:33:22;;;;;;;0.35;0.35;;;25.00;76.60;;;;;;4208133;28;20077;-47
2021/07/04 11:35:47;;;;;;;0.28;0.28;;;25.00;76.60;;;;;;4205492;28;20051;-47
2021/07/04 11:38:15;;;;;;;0.40;0.40;;;25.00;76.40;;;;;;4205486;28;20117;-51
2021/07/04 11:40:40;;;;;;;0.08;0.08;;;25.00;76.30;;;;;;4198932;28;20076;-50
2021/07/04 11:43:12;;;;;;;0.20;0.20;;;24.90;76.20;;;;;;4190943;28;20524;-52
2021/07/04 11:45:35;;;;;;;0.15;0.15;;;24.90;76.20;;;;;;4191246;28;20498;-53
2021/07/04 11:47:58;;;;;;;2.60;0.90;;;25.00;76.20;;;;;;4190976;28;20052;-50
2021/07/04 11:50:20;;;;;;;1.05;1.05;;;25.00;76.20;;;;;;4191260;28;20050;-46
2021/07/04 11:52:44;;;;;;;12.60;1.45;;;25.00;76.10;;;;;;4191593;28;20056;-48
2021/07/04 11:55:07;;;;;;;0.40;0.40;;;25.00;76.00;;;;;;4207880;28;20060;-47
2021/07/04 11:57:32;;;;;;;0.00;0.00;;;25.00;75.90;;;;;;4207383;28;20059;-47
2021/07/04 11:59:56;;;;;;;0.22;0.22;;;25.00;75.70;;;;;;4206109;28;20054;-47
2021/07/04 12:02:18;;;;;;;0.22;0.22;;;25.10;75.60;;;;;;4207883;28;20063;-48
2021/07/04 12:04:44;;;;;;;0.00;0.00;;;25.10;75.50;;;;;;4206160;28;20178;-48
2021/07/04 12:07:09;;;;;;;0.32;0.32;;;25.10;75.40;;;;;;4207907;28;20147;-47
2021/07/04 12:09:40;;;;;;;0.05;0.05;;;25.10;75.40;;;;;;4207681;28;20127;-48
2021/07/04 12:12:03;;;;;;;3.20;1.17;;;25.20;75.50;;;;;;4206113;28;20962;-48
2021/07/04 12:14:31;;;;;;;0.57;0.57;;;25.20;75.40;;;;;;4192559;28;20055;-49
2021/07/04 12:16:54;;;;;;;0.13;0.13;;;25.20;76.30;;;;;;4190893;28;20064;-46
2021/07/04 12:19:29;;;;;;;0.22;0.22;;;25.20;75.40;;;;;;4189938;28;20051;-49
2021/07/04 12:21:52;;;;;;;0.30;0.30;;;25.20;75.40;;;;;;4189373;28;20135;-50
2021/07/04 12:24:14;;;;;;;0.30;0.30;;;25.20;75.40;;;;;;4190829;28;20078;-46
2021/07/04 12:26:46;;;;;;;0.10;0.10;;;25.20;75.40;;;;;;4190570;28;20067;-46
2021/07/04 12:29:08;;;;;;;0.40;0.40;;;25.30;75.10;;;;;;4195648;28;20077;-45
2021/07/04 12:31:30;;;;;;;0.30;0.30;;;25.30;75.10;;;;;;4207870;28;20440;-47
2021/07/04 12:33:52;;;;;;;0.20;0.20;;;25.30;75.00;;;;;;4193946;28;20048;-48
2021/07/04 12:36:14;;;;;;;0.10;0.10;;;25.30;75.80;;;;;;4189674;28;20052;-47
2021/07/04 12:38:39;;;;;;;1.90;0.85;;;25.30;74.90;;;;;;4190660;28;20513;-45